Time;durP1;ratioP1;P1;durP2;ratioP2;P2;SDS_P1;SDS_P2;PMS_P1;PMS_P2;Temp;Humidity;BMP_temperature;BMP_pressure;BME280_temperature;BME280_humidity;BME280_pressure;Samples;Min_cycle;Max_cycle;Signal;HPM_P1;HPM_P2
2023/09/14 00:00:00;;;;;;;41.40;39.90;;;17.50;99.90;;;;;;5067475;28;20204;-64
2023/09/14 00:02:27;;;;;;;42.05;40.53;;;17.50;99.90;;;;;;5072550;28;20223;-63
2023/09/14 00:04:54;;;;;;;42.08;40.60;;;17.50;99.90;;;;;;5072263;28;20229;-63
2023/09/14 00:07:22;;;;;;;46.10;44.50;;;17.50;99.90;;;;;;5072128;28;20207;-64
2023/09/14 00:09:49;;;;;;;40.55;39.03;;;17.40;99.90;;;;;;5072566;28;20203;-63
2023/09/14 00:12:15;;;;;;;40.37;38.90;;;17.40;99.90;;;;;;5069266;28;20207;-62
2023/09/14 00:14:42;;;;;;;43.30;41.77;;;17.40;99.90;;;;;;5070702;28;20203;-62
2023/09/14 00:17:10;;;;;;;41.25;39.80;;;17.40;99.90;;;;;;5071905;28;20195;-63
2023/09/14 00:19:36;;;;;;;50.00;48.20;;;17.30;99.90;;;;;;5071417;28;20257;-63
2023/09/14 00:22:04;;;;;;;44.60;42.97;;;17.30;99.90;;;;;;5071713;28;20223;-63
2023/09/14 00:24:32;;;;;;;48.97;47.23;;;17.40;99.90;;;;;;5071370;28;20207;-63
2023/09/14 00:26:59;;;;;;;40.95;39.45;;;17.40;99.90;;;;;;5068386;28;20199;-63
2023/09/14 00:29:25;;;;;;;40.17;38.73;;;17.40;99.90;;;;;;5057438;28;20216;-62
2023/09/14 00:31:52;;;;;;;45.87;44.23;;;17.40;99.90;;;;;;5070512;28;20286;-62
2023/09/14 00:34:19;;;;;;;40.53;39.08;;;17.40;99.90;;;;;;5071563;28;20209;-63
2023/09/14 00:36:46;;;;;;;41.73;40.27;;;17.40;99.90;;;;;;5070356;28;20253;-63
2023/09/14 00:39:13;;;;;;;44.90;43.30;;;17.30;99.90;;;;;;5075225;28;20225;-63
2023/09/14 00:41:41;;;;;;;40.53;39.10;;;17.20;99.90;;;;;;5078246;28;20215;-63
2023/09/14 00:44:08;;;;;;;41.95;40.45;;;17.30;99.90;;;;;;5078018;28;20210;-62
2023/09/14 00:46:35;;;;;;;43.37;41.77;;;17.30;99.90;;;;;;5078842;28;20203;-63
2023/09/14 00:49:02;;;;;;;45.57;43.93;;;17.30;99.90;;;;;;5076386;28;20237;-64
2023/09/14 00:51:29;;;;;;;44.50;42.88;;;17.30;99.90;;;;;;5072313;28;20545;-64
2023/09/14 00:53:57;;;;;;;46.30;44.65;;;17.30;99.90;;;;;;5069078;28;20222;-62
2023/09/14 00:56:26;;;;;;;43.58;41.92;;;17.30;99.90;;;;;;5071067;28;20230;-62
2023/09/14 00:58:55;;;;;;;41.30;39.87;;;17.30;99.90;;;;;;5070133;28;20755;-63
2023/09/14 01:01:22;;;;;;;50.50;48.70;;;17.30;99.90;;;;;;5071489;28;20302;-62
2023/09/14 01:03:50;;;;;;;49.27;47.40;;;17.30;99.90;;;;;;5071435;28;20203;-63
2023/09/14 01:06:17;;;;;;;51.30;49.47;;;17.30;99.90;;;;;;5070338;28;20206;-62
2023/09/14 01:08:44;;;;;;;53.37;51.47;;;17.30;99.90;;;;;;5070977;28;20223;-63
2023/09/14 01:11:11;;;;;;;48.30;46.58;;;17.30;99.90;;;;;;5071855;28;20210;-62
2023/09/14 01:13:49;;;;;;;51.70;49.80;;;17.30;99.90;;;;;;5072957;28;20199;-62
2023/09/14 01:16:26;;;;;;;48.43;46.70;;;17.30;99.90;;;;;;5082526;28;20200;-64
2023/09/14 01:18:59;;;;;;;53.80;51.90;;;17.30;99.90;;;;;;5088091;28;20287;-63
2023/09/14 01:21:57;;;;;;;47.73;46.03;;;17.30;99.90;;;;;;5077054;28;20276;-64
2023/09/14 01:24:36;;;;;;;53.70;51.70;;;17.20;99.90;;;;;;5064784;28;20434;-64
2023/09/14 01:27:06;;;;;;;48.77;46.97;;;17.20;99.90;;;;;;5072668;28;20209;-62
2023/09/14 01:29:33;;;;;;;55.90;53.90;;;17.20;99.90;;;;;;5066693;28;20227;-62
2023/09/14 01:32:00;;;;;;;49.47;47.57;;;17.10;99.90;;;;;;5069876;28;20301;-63
2023/09/14 01:34:27;;;;;;;50.03;48.07;;;17.10;99.90;;;;;;5071135;28;20633;-63
2023/09/14 01:36:57;;;;;;;55.67;53.63;;;17.00;99.90;;;;;;5071368;28;20269;-63
2023/09/14 01:39:25;;;;;;;52.70;50.80;;;16.90;99.90;;;;;;5071913;28;20241;-63
2023/09/14 01:41:55;;;;;;;52.07;50.20;;;16.90;99.90;;;;;;5071041;28;20243;-62
2023/09/14 01:44:25;;;;;;;52.43;50.50;;;16.80;99.90;;;;;;5074111;28;20289;-63
2023/09/14 01:46:52;;;;;;;52.03;50.20;;;16.70;99.90;;;;;;5072383;28;20211;-63
2023/09/14 01:49:19;;;;;;;57.30;55.27;;;16.70;99.90;;;;;;5074566;28;20219;-62
2023/09/14 01:51:46;;;;;;;45.60;44.00;;;16.60;99.90;;;;;;5074405;28;20334;-64
2023/09/14 01:54:12;;;;;;;50.63;48.73;;;16.60;99.90;;;;;;5074609;28;20203;-63
2023/09/14 01:56:39;;;;;;;58.53;56.42;;;16.60;99.90;;;;;;5074183;28;20211;-62
2023/09/14 01:59:06;;;;;;;48.93;47.20;;;16.60;99.90;;;;;;5074213;28;20596;-63
2023/09/14 02:01:34;;;;;;;48.05;46.38;;;16.60;99.90;;;;;;5074525;28;20227;-63
2023/09/14 02:04:01;;;;;;;44.27;42.70;;;16.60;99.90;;;;;;5072884;28;20527;-63
2023/09/14 02:06:28;;;;;;;44.22;42.65;;;16.50;99.90;;;;;;5074519;28;20290;-63
2023/09/14 02:08:55;;;;;;;61.73;59.00;;;16.50;99.90;;;;;;5073955;28;20325;-62
2023/09/14 02:11:22;;;;;;;42.42;40.92;;;16.50;99.90;;;;;;5074201;28;20306;-63
2023/09/14 02:13:48;;;;;;;46.53;44.73;;;16.60;99.90;;;;;;5074199;28;20211;-62
2023/09/14 02:16:16;;;;;;;38.43;37.07;;;16.60;99.90;;;;;;5067656;28;20583;-64
2023/09/14 02:18:44;;;;;;;35.37;34.13;;;16.60;99.90;;;;;;5073864;28;20262;-64
2023/09/14 02:21:12;;;;;;;39.83;38.43;;;16.60;99.90;;;;;;5073547;28;20215;-63
2023/09/14 02:23:39;;;;;;;41.73;40.17;;;16.70;99.90;;;;;;5073437;28;20203;-62
2023/09/14 02:26:06;;;;;;;39.63;38.22;;;16.70;99.90;;;;;;5074636;28;20206;-63
2023/09/14 02:28:33;;;;;;;42.87;41.37;;;16.70;99.90;;;;;;5080940;28;20231;-63
2023/09/14 02:30:59;;;;;;;41.10;39.60;;;16.70;99.90;;;;;;5092184;28;20203;-64
2023/09/14 02:33:26;;;;;;;44.45;42.85;;;16.70;99.90;;;;;;5091505;28;20192;-63
2023/09/14 02:35:54;;;;;;;40.30;38.88;;;16.60;99.90;;;;;;5085965;28;20231;-63
2023/09/14 02:38:22;;;;;;;46.17;44.47;;;16.60;99.90;;;;;;5073552;28;20323;-63
2023/09/14 02:40:48;;;;;;;45.30;43.70;;;16.60;99.90;;;;;;5073669;28;20211;-63
2023/09/14 02:43:15;;;;;;;38.53;37.20;;;16.60;99.90;;;;;;5066229;28;20219;-63
2023/09/14 02:45:42;;;;;;;37.70;36.35;;;16.70;99.90;;;;;;5073178;28;20199;-64
2023/09/14 02:48:09;;;;;;;42.47;40.97;;;16.60;99.90;;;;;;5072778;28;20219;-64
2023/09/14 02:50:36;;;;;;;41.72;40.25;;;16.70;99.90;;;;;;5073767;28;20226;-63
2023/09/14 02:53:04;;;;;;;42.03;40.50;;;16.70;99.90;;;;;;5072675;28;20949;-63
2023/09/14 02:55:34;;;;;;;41.30;39.83;;;16.60;99.90;;;;;;5072044;28;20297;-63
2023/09/14 02:58:00;;;;;;;40.38;38.88;;;16.70;99.90;;;;;;5072483;28;20227;-63
2023/09/14 03:00:27;;;;;;;41.70;40.20;;;16.70;99.90;;;;;;5073032;28;20209;-63
2023/09/14 03:02:54;;;;;;;39.38;38.00;;;16.70;99.90;;;;;;5072233;28;20223;-64
2023/09/14 03:05:21;;;;;;;43.80;42.23;;;16.80;99.90;;;;;;5072563;28;20200;-63
2023/09/14 03:07:48;;;;;;;47.72;46.03;;;16.80;99.90;;;;;;5072397;28;20571;-63
2023/09/14 03:10:16;;;;;;;43.95;42.35;;;16.80;99.90;;;;;;5072507;28;20561;-63
2023/09/14 03:12:43;;;;;;;44.33;42.72;;;16.80;99.90;;;;;;5072409;28;20524;-63
2023/09/14 03:15:10;;;;;;;43.43;41.87;;;16.80;99.90;;;;;;5072479;28;20195;-62
2023/09/14 03:17:37;;;;;;;49.53;47.73;;;16.70;99.90;;;;;;5072401;28;20270;-62
2023/09/14 03:20:06;;;;;;;46.03;44.43;;;16.70;99.90;;;;;;5072157;28;20927;-64
2023/09/14 03:22:33;;;;;;;48.03;46.33;;;16.70;99.90;;;;;;5072241;28;20234;-64
2023/09/14 03:25:00;;;;;;;49.38;47.60;;;16.80;99.90;;;;;;5072086;28;20294;-63
2023/09/14 03:27:29;;;;;;;45.13;43.47;;;16.80;99.90;;;;;;5073284;28;20314;-64
2023/09/14 03:29:56;;;;;;;41.27;39.80;;;16.80;99.90;;;;;;5072208;28;20242;-64
2023/09/14 03:32:22;;;;;;;48.27;46.47;;;16.70;99.90;;;;;;5072122;28;20277;-63
2023/09/14 03:34:49;;;;;;;42.55;41.03;;;16.70;99.90;;;;;;5071705;28;20207;-63
2023/09/14 03:37:16;;;;;;;46.67;44.97;;;16.70;99.90;;;;;;5065134;28;20614;-63
2023/09/14 03:39:45;;;;;;;45.15;43.47;;;16.60;99.90;;;;;;5072176;28;20205;-63
2023/09/14 03:42:12;;;;;;;47.63;45.93;;;16.70;99.90;;;;;;5071900;28;20669;-64
2023/09/14 03:44:40;;;;;;;52.20;50.33;;;16.70;99.90;;;;;;5071867;28;20271;-64
2023/09/14 03:47:07;;;;;;;44.67;43.10;;;16.90;99.90;;;;;;5070503;28;20215;-64
2023/09/14 03:49:34;;;;;;;50.30;48.50;;;16.70;99.90;;;;;;5072050;28;20299;-64
2023/09/14 03:52:01;;;;;;;50.73;48.93;;;16.70;99.90;;;;;;5072009;28;20203;-62
2023/09/14 03:54:28;;;;;;;48.23;46.43;;;16.70;99.90;;;;;;5071593;28;20572;-64
2023/09/14 03:56:55;;;;;;;54.53;52.53;;;16.60;99.90;;;;;;5071435;28;20807;-63
2023/09/14 03:59:22;;;;;;;47.77;46.03;;;16.60;99.90;;;;;;5071675;28;20314;-63
2023/09/14 04:01:50;;;;;;;70.50;68.00;;;16.50;99.90;;;;;;5071297;28;20207;-62
2023/09/14 04:04:17;;;;;;;51.63;49.80;;;16.60;99.90;;;;;;5071377;28;20210;-62
2023/09/14 04:06:47;;;;;;;54.97;53.00;;;16.60;99.90;;;;;;5064328;28;20645;-63
2023/09/14 04:09:13;;;;;;;57.97;55.83;;;16.70;99.90;;;;;;5076049;28;20229;-63
2023/09/14 04:11:41;;;;;;;52.83;50.97;;;16.60;99.90;;;;;;5070348;28;20203;-64
2023/09/14 04:14:08;;;;;;;50.77;48.97;;;16.70;99.90;;;;;;5070845;28;20210;-63
2023/09/14 04:16:35;;;;;;;46.70;45.03;;;16.70;99.90;;;;;;5071714;28;20209;-63
2023/09/14 04:19:03;;;;;;;44.65;43.00;;;16.80;99.90;;;;;;5064800;28;20227;-63
2023/09/14 04:21:30;;;;;;;50.75;48.92;;;16.70;99.90;;;;;;5086896;28;20290;-63
2023/09/14 04:23:57;;;;;;;45.47;43.83;;;16.70;99.90;;;;;;5066425;28;20689;-63
2023/09/14 04:26:26;;;;;;;47.40;45.70;;;16.80;99.90;;;;;;5066106;28;20626;-63
2023/09/14 04:28:53;;;;;;;55.43;53.47;;;16.70;99.90;;;;;;5078042;28;20227;-63
2023/09/14 04:31:20;;;;;;;58.80;56.77;;;16.70;99.90;;;;;;5071210;28;20204;-62
2023/09/14 04:33:47;;;;;;;51.53;49.67;;;16.70;99.90;;;;;;5063676;28;20212;-63
2023/09/14 04:36:15;;;;;;;49.80;48.03;;;16.70;99.90;;;;;;5065419;28;20290;-63
2023/09/14 04:38:42;;;;;;;46.53;44.90;;;16.70;99.90;;;;;;5068808;28;20229;-63
2023/09/14 04:41:09;;;;;;;50.23;48.47;;;16.70;99.90;;;;;;5067220;28;20199;-62
2023/09/14 04:43:37;;;;;;;46.17;44.53;;;16.70;99.90;;;;;;5066833;28;20219;-63
2023/09/14 04:46:05;;;;;;;54.10;52.17;;;16.80;99.90;;;;;;5068949;28;20203;-63
2023/09/14 04:48:32;;;;;;;65.97;63.60;;;16.60;99.90;;;;;;5059726;28;20349;-63
2023/09/14 04:50:59;;;;;;;47.90;46.20;;;16.70;99.90;;;;;;5068849;28;20205;-63
2023/09/14 04:53:28;;;;;;;46.90;45.23;;;16.60;99.90;;;;;;5066433;28;20192;-61
2023/09/14 04:55:55;;;;;;;45.83;44.23;;;16.70;99.90;;;;;;5070702;28;20225;-63
2023/09/14 04:58:22;;;;;;;39.20;37.83;;;16.60;99.90;;;;;;5070788;28;20650;-64
2023/09/14 05:00:49;;;;;;;41.20;39.72;;;16.60;99.90;;;;;;5070304;28;20207;-62
2023/09/14 05:03:16;;;;;;;42.65;41.15;;;16.60;99.90;;;;;;5055654;28;20816;-62
2023/09/14 05:05:43;;;;;;;43.37;41.87;;;16.50;99.90;;;;;;5070525;28;20214;-62
2023/09/14 05:08:10;;;;;;;51.00;49.20;;;16.50;99.90;;;;;;5071852;28;20701;-64
2023/09/14 05:10:38;;;;;;;56.90;54.90;;;16.60;99.90;;;;;;5073789;28;20241;-63
2023/09/14 05:13:05;;;;;;;50.13;48.37;;;16.50;99.90;;;;;;5070569;28;20733;-62
2023/09/14 05:15:32;;;;;;;54.97;53.00;;;16.50;99.90;;;;;;5065305;28;20815;-63
2023/09/14 05:17:59;;;;;;;38.90;37.50;;;16.50;99.90;;;;;;5068770;28;20329;-63
2023/09/14 05:20:26;;;;;;;41.88;40.38;;;16.60;99.90;;;;;;5052133;28;20207;-62
2023/09/14 05:22:53;;;;;;;45.47;43.87;;;16.60;99.90;;;;;;5068239;28;20241;-62
2023/09/14 05:25:20;;;;;;;41.77;40.27;;;16.60;99.90;;;;;;5063271;28;20212;-62
2023/09/14 05:27:48;;;;;;;56.27;54.13;;;16.70;99.90;;;;;;5061834;28;20247;-62
2023/09/14 05:30:21;;;;;;;38.70;37.33;;;16.80;99.90;;;;;;5070956;28;20293;-62
2023/09/14 05:32:49;;;;;;;42.07;40.53;;;16.70;99.90;;;;;;5063138;28;20284;-63
2023/09/14 05:35:16;;;;;;;41.33;39.87;;;16.80;99.90;;;;;;5060579;28;20205;-63
2023/09/14 05:37:43;;;;;;;36.33;35.03;;;16.90;99.90;;;;;;5062947;28;20227;-62
2023/09/14 05:40:12;;;;;;;49.78;48.00;;;16.90;99.90;;;;;;5061925;28;20669;-63
2023/09/14 05:42:39;;;;;;;41.87;40.40;;;16.90;99.90;;;;;;5063730;28;20241;-63
2023/09/14 05:45:09;;;;;;;42.20;40.72;;;16.90;99.90;;;;;;5063857;28;20213;-62
2023/09/14 05:47:38;;;;;;;45.37;43.60;;;17.00;99.90;;;;;;5062242;28;20226;-63
2023/09/14 05:50:07;;;;;;;41.03;39.57;;;17.00;99.90;;;;;;5065450;28;20302;-63
2023/09/14 05:52:34;;;;;;;39.80;38.40;;;17.00;99.90;;;;;;5057438;28;20200;-64
2023/09/14 05:55:00;;;;;;;40.70;39.23;;;17.00;99.90;;;;;;5053213;28;20705;-63
2023/09/14 05:57:27;;;;;;;34.50;33.30;;;17.10;99.90;;;;;;5061662;28;20290;-63
2023/09/14 05:59:54;;;;;;;33.03;31.90;;;17.20;99.90;;;;;;5063549;28;20299;-64
2023/09/14 06:02:22;;;;;;;31.03;29.97;;;17.30;99.90;;;;;;5070756;28;20209;-62
2023/09/14 06:04:49;;;;;;;31.47;30.37;;;17.30;99.90;;;;;;5070100;28;20204;-64
2023/09/14 06:07:16;;;;;;;29.75;28.73;;;17.40;99.90;;;;;;5054229;28;20203;-62
2023/09/14 06:09:43;;;;;;;28.67;27.67;;;17.40;99.90;;;;;;5072225;28;20238;-64
2023/09/14 06:12:09;;;;;;;30.10;29.03;;;17.50;99.90;;;;;;5071648;28;20425;-62
2023/09/14 06:14:37;;;;;;;28.77;27.80;;;17.50;99.90;;;;;;5070708;28;20207;-63
2023/09/14 06:17:04;;;;;;;28.58;27.58;;;17.60;99.90;;;;;;5070986;28;20304;-62
2023/09/14 06:19:32;;;;;;;21.23;20.47;;;17.70;99.90;;;;;;5070628;28;20302;-62
2023/09/14 06:21:59;;;;;;;27.23;26.27;;;17.80;99.90;;;;;;5071401;28;20749;-63
2023/09/14 06:24:26;;;;;;;18.40;17.77;;;17.80;99.90;;;;;;5069974;28;20780;-63
2023/09/14 06:26:55;;;;;;;23.77;22.93;;;17.90;99.90;;;;;;5061722;28;20236;-63
2023/09/14 06:29:22;;;;;;;22.35;21.60;;;18.00;99.90;;;;;;5071438;28;20230;-64
2023/09/14 06:31:49;;;;;;;18.13;17.52;;;18.00;99.90;;;;;;5073493;28;20211;-64
2023/09/14 06:34:16;;;;;;;25.60;24.73;;;18.10;99.90;;;;;;5057573;28;20226;-63
2023/09/14 06:36:44;;;;;;;28.00;27.03;;;18.20;99.90;;;;;;5066736;28;20196;-63
2023/09/14 06:39:12;;;;;;;27.00;26.07;;;18.10;99.90;;;;;;5070906;28;20727;-63
2023/09/14 06:41:39;;;;;;;29.33;28.30;;;18.10;99.90;;;;;;5065362;28;20680;-62
2023/09/14 06:44:06;;;;;;;22.42;21.63;;;18.20;99.90;;;;;;5074045;28;20222;-63
2023/09/14 06:46:33;;;;;;;30.53;29.47;;;18.30;99.90;;;;;;5075996;28;20278;-63
2023/09/14 06:49:00;;;;;;;27.98;26.98;;;18.30;99.90;;;;;;5066644;28;20677;-63
2023/09/14 06:51:28;;;;;;;29.20;28.13;;;18.30;99.90;;;;;;5073431;28;20595;-62
2023/09/14 06:53:56;;;;;;;31.03;29.93;;;18.40;99.90;;;;;;5073081;28;20567;-63
2023/09/14 06:56:23;;;;;;;20.02;19.30;;;18.50;99.90;;;;;;5076790;28;20290;-62
2023/09/14 06:58:50;;;;;;;18.77;18.13;;;18.60;99.90;;;;;;5073935;28;20235;-62
2023/09/14 07:01:16;;;;;;;27.40;26.43;;;18.70;99.90;;;;;;5071257;28;20206;-64
2023/09/14 07:03:43;;;;;;;38.50;37.10;;;18.70;99.90;;;;;;5070335;28;20325;-63
2023/09/14 07:06:10;;;;;;;34.17;32.93;;;18.80;99.90;;;;;;5078989;28;20291;-63
2023/09/14 07:08:40;;;;;;;33.67;32.47;;;18.80;99.90;;;;;;5078955;28;20316;-63
2023/09/14 07:11:09;;;;;;;29.97;28.87;;;18.90;99.90;;;;;;5076119;28;20203;-63
2023/09/14 07:13:35;;;;;;;37.97;36.57;;;18.90;99.90;;;;;;5072529;28;20199;-62
2023/09/14 07:16:03;;;;;;;38.93;37.53;;;18.90;99.90;;;;;;5073228;28;20210;-63
2023/09/14 07:18:31;;;;;;;32.47;31.30;;;18.80;99.90;;;;;;5073426;28;20219;-64
2023/09/14 07:21:02;;;;;;;28.67;27.67;;;18.90;99.90;;;;;;5081579;28;20294;-64
2023/09/14 07:23:29;;;;;;;17.60;17.00;;;19.00;99.90;;;;;;5076099;28;20227;-64
2023/09/14 07:25:56;;;;;;;28.52;27.52;;;19.00;99.90;;;;;;5072610;28;20665;-64
2023/09/14 07:28:24;;;;;;;26.05;25.02;;;19.00;99.90;;;;;;5072646;28;20219;-64
2023/09/14 07:30:52;;;;;;;32.33;31.17;;;19.20;99.90;;;;;;5072401;28;20260;-63
2023/09/14 07:33:20;;;;;;;31.30;30.17;;;19.30;99.90;;;;;;5073531;28;20199;-63
2023/09/14 07:35:46;;;;;;;24.00;23.13;;;19.40;99.90;;;;;;5075163;28;20234;-62
2023/09/14 07:38:14;;;;;;;24.60;23.70;;;19.40;99.90;;;;;;5075383;28;20219;-63
2023/09/14 07:40:41;;;;;;;24.20;23.33;;;19.40;99.90;;;;;;5073736;28;20637;-63
2023/09/14 07:43:08;;;;;;;18.70;17.90;;;19.50;99.90;;;;;;5072071;28;20719;-64
2023/09/14 07:45:38;;;;;;;18.33;17.63;;;19.60;99.90;;;;;;5072795;28;20679;-63
2023/09/14 07:48:06;;;;;;;18.13;17.50;;;19.70;99.90;;;;;;5072635;28;20227;-64
2023/09/14 07:50:36;;;;;;;22.03;21.20;;;19.90;99.90;;;;;;5072753;28;20300;-62
2023/09/14 07:53:03;;;;;;;21.37;20.57;;;20.10;99.90;;;;;;5072106;28;20203;-62
2023/09/14 07:55:30;;;;;;;23.53;22.67;;;20.10;99.90;;;;;;5073526;28;20283;-61
2023/09/14 07:57:57;;;;;;;26.33;25.23;;;20.00;99.90;;;;;;5074315;28;20245;-62
2023/09/14 08:00:25;;;;;;;28.93;27.83;;;19.90;99.90;;;;;;5074832;28;20665;-63
2023/09/14 08:02:53;;;;;;;23.03;22.23;;;19.90;99.90;;;;;;5075475;28;20207;-64
2023/09/14 08:05:20;;;;;;;26.47;25.50;;;19.80;99.90;;;;;;5074824;28;20210;-63
2023/09/14 08:07:47;;;;;;;41.93;40.37;;;19.80;99.90;;;;;;5074007;28;20227;-62
2023/09/14 08:10:14;;;;;;;40.70;39.20;;;19.70;99.90;;;;;;5075401;28;20424;-62
2023/09/14 08:12:41;;;;;;;39.90;38.40;;;19.50;99.90;;;;;;5078506;28;20267;-62
2023/09/14 08:15:08;;;;;;;32.35;31.02;;;19.40;99.90;;;;;;5074997;28;20286;-63
2023/09/14 08:17:35;;;;;;;35.10;33.83;;;19.40;99.90;;;;;;5072747;28;20306;-63
2023/09/14 08:20:04;;;;;;;35.45;34.15;;;19.30;99.90;;;;;;5071405;28;20213;-63
2023/09/14 08:22:31;;;;;;;34.03;32.78;;;19.30;99.90;;;;;;5071977;28;20219;-62
2023/09/14 08:25:00;;;;;;;34.63;33.37;;;19.30;99.90;;;;;;5071446;28;20310;-63
2023/09/14 08:27:28;;;;;;;46.67;44.93;;;19.20;99.90;;;;;;5071321;28;20291;-63
2023/09/14 08:29:55;;;;;;;37.28;35.85;;;19.30;99.90;;;;;;5071822;28;20203;-63
2023/09/14 08:32:22;;;;;;;35.00;33.72;;;19.30;99.90;;;;;;5064312;28;20661;-63
2023/09/14 08:34:49;;;;;;;46.42;44.75;;;19.30;99.90;;;;;;5071216;28;20211;-63
2023/09/14 08:37:18;;;;;;;41.08;39.53;;;19.20;99.90;;;;;;5070202;28;20838;-64
2023/09/14 08:39:45;;;;;;;54.10;52.10;;;19.20;99.90;;;;;;5071456;28;20218;-63
2023/09/14 08:42:13;;;;;;;43.00;41.40;;;19.30;99.90;;;;;;5068796;28;20200;-63
2023/09/14 08:44:41;;;;;;;51.08;49.17;;;19.30;99.90;;;;;;5069344;28;20223;-62
2023/09/14 08:47:10;;;;;;;44.55;42.92;;;19.20;99.90;;;;;;5068265;28;20215;-62
2023/09/14 08:49:37;;;;;;;44.13;42.53;;;19.30;99.90;;;;;;5070375;28;20298;-66
2023/09/14 08:52:07;;;;;;;46.40;44.73;;;19.30;99.90;;;;;;5070050;28;20207;-63
2023/09/14 08:54:35;;;;;;;25.85;24.92;;;19.30;99.90;;;;;;5069632;28;20274;-63
2023/09/14 08:57:05;;;;;;;53.77;51.83;;;19.40;99.90;;;;;;5069991;28;20211;-64
2023/09/14 08:59:34;;;;;;;44.43;42.80;;;19.40;99.90;;;;;;5069263;28;20670;-63
2023/09/14 09:02:02;;;;;;;51.27;49.47;;;19.30;99.90;;;;;;5069543;28;20207;-62
2023/09/14 09:04:30;;;;;;;47.03;45.33;;;19.20;99.90;;;;;;5069461;28;20321;-64
2023/09/14 09:06:57;;;;;;;34.80;33.57;;;19.20;99.90;;;;;;5069285;28;20730;-62
2023/09/14 09:09:25;;;;;;;48.80;47.03;;;19.20;99.90;;;;;;5069344;28;20223;-63
2023/09/14 09:11:53;;;;;;;44.93;43.30;;;19.30;99.90;;;;;;5069642;28;20199;-63
2023/09/14 09:14:20;;;;;;;42.03;40.53;;;19.40;99.90;;;;;;5069067;28;20203;-63
2023/09/14 09:16:47;;;;;;;78.20;74.80;;;19.40;99.90;;;;;;5070037;28;20676;-63
2023/09/14 09:19:15;;;;;;;44.20;42.57;;;19.40;99.90;;;;;;5069491;28;20227;-62
2023/09/14 09:21:42;;;;;;;64.70;62.27;;;19.40;99.90;;;;;;5069850;28;20796;-63
2023/09/14 09:24:13;;;;;;;45.63;43.93;;;19.50;99.90;;;;;;5069113;28;20223;-63
2023/09/14 09:26:41;;;;;;;44.33;42.72;;;19.40;99.90;;;;;;5069366;28;20239;-64
2023/09/14 09:29:16;;;;;;;45.93;44.27;;;19.60;99.90;;;;;;5068963;28;20223;-62
2023/09/14 09:31:44;;;;;;;35.65;34.33;;;19.60;99.90;;;;;;5069261;28;20985;-62
2023/09/14 09:34:12;;;;;;;47.00;45.30;;;19.70;99.90;;;;;;5068721;28;21490;-63
2023/09/14 09:36:39;;;;;;;34.57;33.30;;;19.80;99.90;;;;;;5067728;28;20229;-63
2023/09/14 09:39:10;;;;;;;30.17;29.07;;;19.90;99.90;;;;;;5068470;28;20223;-63
2023/09/14 09:41:37;;;;;;;20.60;19.80;;;20.00;99.90;;;;;;5069315;28;20211;-63
2023/09/14 09:44:07;;;;;;;37.85;36.40;;;20.20;99.90;;;;;;5068967;28;20234;-64
2023/09/14 09:46:36;;;;;;;35.00;33.70;;;20.00;99.90;;;;;;5069794;28;20340;-64
2023/09/14 09:49:04;;;;;;;24.93;24.00;;;19.90;99.90;;;;;;5071159;28;20233;-63
2023/09/14 09:51:33;;;;;;;30.88;29.73;;;20.10;99.90;;;;;;5070251;28;20204;-63
2023/09/14 09:54:04;;;;;;;24.55;23.65;;;20.10;99.90;;;;;;5072526;28;20246;-63
2023/09/14 09:56:33;;;;;;;21.13;20.30;;;20.20;99.90;;;;;;5073115;28;20195;-63
2023/09/14 09:59:03;;;;;;;19.40;18.70;;;20.20;99.90;;;;;;5070380;28;20247;-63
2023/09/14 10:01:31;;;;;;;21.20;20.40;;;20.50;99.90;;;;;;5071192;28;20212;-62
2023/09/14 10:03:59;;;;;;;19.60;18.90;;;20.60;99.90;;;;;;5070902;28;20241;-63
2023/09/14 10:06:27;;;;;;;20.25;19.55;;;20.60;99.90;;;;;;5066018;28;20199;-63
2023/09/14 10:08:57;;;;;;;20.98;20.17;;;20.70;99.90;;;;;;5072303;28;20282;-64
2023/09/14 10:11:25;;;;;;;18.53;17.83;;;20.60;99.90;;;;;;5072716;28;20340;-64
2023/09/14 10:13:52;;;;;;;19.40;18.70;;;20.70;99.90;;;;;;5071911;28;20233;-63
2023/09/14 10:16:23;;;;;;;19.00;18.30;;;20.90;99.90;;;;;;5072076;28;20233;-62
2023/09/14 10:18:54;;;;;;;18.30;17.65;;;21.10;99.90;;;;;;5071986;28;20761;-64
2023/09/14 10:21:23;;;;;;;19.40;18.70;;;21.30;99.90;;;;;;5070577;28;20203;-63
2023/09/14 10:23:52;;;;;;;17.50;16.83;;;21.40;99.90;;;;;;5071926;28;20596;-65
2023/09/14 10:26:19;;;;;;;18.88;18.17;;;21.50;99.90;;;;;;5069807;28;20669;-63
2023/09/14 10:28:47;;;;;;;17.38;16.77;;;21.60;99.90;;;;;;5070647;28;20280;-63
2023/09/14 10:31:15;;;;;;;18.73;18.03;;;21.70;99.90;;;;;;5070861;28;20218;-64
2023/09/14 10:33:45;;;;;;;16.98;16.38;;;21.90;99.90;;;;;;5068988;28;20274;-64
2023/09/14 10:36:12;;;;;;;16.50;15.90;;;21.90;99.90;;;;;;5069911;28;20273;-63
2023/09/14 10:38:43;;;;;;;18.63;17.93;;;22.00;99.90;;;;;;5074630;28;20731;-63
2023/09/14 10:41:11;;;;;;;17.40;16.80;;;22.10;99.90;;;;;;5074440;28;20211;-63
2023/09/14 10:43:39;;;;;;;21.52;20.73;;;22.30;99.90;;;;;;5074040;28;20204;-63
2023/09/14 10:46:08;;;;;;;25.53;24.57;;;22.30;99.90;;;;;;5073564;28;20227;-63
2023/09/14 10:48:36;;;;;;;17.70;17.00;;;22.40;99.90;;;;;;5074151;28;20310;-63
2023/09/14 10:51:03;;;;;;;17.70;17.10;;;22.40;99.90;;;;;;5074093;28;20199;-63
2023/09/14 10:53:30;;;;;;;18.67;17.98;;;22.50;99.90;;;;;;5073393;28;20213;-63
2023/09/14 10:55:59;;;;;;;19.83;19.13;;;22.70;99.90;;;;;;5073593;28;20290;-62
2023/09/14 10:58:26;;;;;;;20.67;19.95;;;22.90;99.90;;;;;;5073306;28;20266;-63
2023/09/14 11:00:59;;;;;;;19.33;18.63;;;23.00;99.90;;;;;;5073530;28;20213;-62
2023/09/14 11:03:26;;;;;;;18.83;18.13;;;23.20;99.90;;;;;;5070129;28;20200;-63
2023/09/14 11:05:53;;;;;;;19.38;18.65;;;23.30;99.90;;;;;;5063578;28;20220;-63
2023/09/14 11:08:21;;;;;;;19.90;19.20;;;23.40;99.90;;;;;;5065738;28;20589;-63
2023/09/14 11:10:55;;;;;;;24.10;23.20;;;23.40;99.90;;;;;;5067184;28;20211;-64
2023/09/14 11:13:30;;;;;;;22.25;21.45;;;23.50;99.90;;;;;;5070182;28;20534;-63
2023/09/14 11:16:04;;;;;;;28.48;27.33;;;23.60;99.90;;;;;;5064170;28;20210;-63
2023/09/14 11:18:36;;;;;;;46.53;44.37;;;23.60;99.90;;;;;;5068350;28;20230;-63
2023/09/14 11:21:03;;;;;;;22.13;21.35;;;23.50;99.90;;;;;;5074364;28;20207;-64
2023/09/14 11:23:36;;;;;;;19.95;19.25;;;23.60;99.90;;;;;;5072376;28;20211;-63
2023/09/14 11:26:04;;;;;;;21.70;20.90;;;23.70;99.90;;;;;;5073770;28;20223;-63
2023/09/14 11:28:34;;;;;;;19.42;18.73;;;23.80;99.90;;;;;;5060743;28;20227;-62
2023/09/14 11:31:02;;;;;;;17.92;17.27;;;24.00;99.90;;;;;;5067299;28;20222;-62
2023/09/14 11:33:31;;;;;;;16.02;15.52;;;24.20;99.90;;;;;;5073992;28;20221;-63
2023/09/14 11:36:01;;;;;;;44.55;41.92;;;24.10;99.90;;;;;;5074186;28;20678;-62
2023/09/14 11:38:28;;;;;;;18.10;17.50;;;24.00;99.90;;;;;;5074736;28;20313;-62
2023/09/14 11:40:55;;;;;;;17.30;16.70;;;24.00;99.90;;;;;;5075252;28;20212;-64
2023/09/14 11:43:23;;;;;;;17.30;16.70;;;24.00;99.90;;;;;;5073480;28;20302;-63
2023/09/14 11:45:56;;;;;;;16.35;15.75;;;24.00;99.90;;;;;;5074210;28;20333;-63
2023/09/14 11:48:23;;;;;;;19.80;19.08;;;24.00;99.90;;;;;;5078497;28;20709;-63
2023/09/14 11:50:53;;;;;;;22.95;22.05;;;24.20;99.90;;;;;;5072851;28;20766;-63
2023/09/14 11:53:23;;;;;;;17.30;16.70;;;24.30;99.90;;;;;;5076902;28;20233;-63
2023/09/14 11:55:52;;;;;;;17.33;16.73;;;24.30;99.90;;;;;;5069992;28;20222;-62
2023/09/14 11:58:22;;;;;;;18.02;17.42;;;24.30;99.90;;;;;;5075110;28;20254;-62
2023/09/14 12:00:53;;;;;;;17.60;16.90;;;24.20;99.90;;;;;;5076815;28;20210;-63
2023/09/14 12:03:21;;;;;;;16.85;16.25;;;24.10;99.90;;;;;;5074958;28;20199;-62
2023/09/14 12:05:48;;;;;;;24.40;23.40;;;23.80;99.90;;;;;;5075922;28;20227;-62
2023/09/14 12:08:17;;;;;;;23.85;22.95;;;23.80;99.90;;;;;;5073459;28;20243;-63
2023/09/14 12:10:46;;;;;;;22.65;21.73;;;23.90;99.90;;;;;;5074298;28;20211;-63
2023/09/14 12:13:14;;;;;;;17.95;17.30;;;23.60;99.90;;;;;;5075167;28;20214;-63
2023/09/14 12:15:43;;;;;;;16.70;16.10;;;23.40;99.90;;;;;;5073465;28;20290;-63
2023/09/14 12:18:12;;;;;;;16.48;15.88;;;23.50;99.90;;;;;;5075467;28;20234;-63
2023/09/14 12:20:41;;;;;;;18.85;18.23;;;23.60;99.90;;;;;;5071690;28;20293;-62
2023/09/14 12:23:09;;;;;;;16.45;15.85;;;23.80;99.90;;;;;;5071824;28;20207;-62
2023/09/14 12:25:38;;;;;;;15.73;15.23;;;24.00;99.90;;;;;;5072453;28;20642;-63
2023/09/14 12:28:08;;;;;;;18.70;18.00;;;24.20;99.90;;;;;;5071929;28;20227;-63